Terminal Aerodrome Forecast
Issued by NWS

Current Version | Previous Version | Graphics & Text | Print | Product List | Glossary On
Versions: 1 2 3 4 5 6 7 8 9 10 11 12 13 14 15 16
000
FTUS41 KPBZ 260500
TAFMGW
TAF
KMGW 260520Z 2606/2706 03005KT P6SM BKN100
     FM261500 02005KT 5SM -SHSN OVC025
     FM262100 34008KT P6SM -SHSN OVC020=

USA.gov is the U.S. government's official web portal to all federal, state and local government web resources and services.